Terminal Aerodrome Forecast
Issued by NWS Wilmington, OH

Current Version | Previous Version | Graphics & Text | Print | Product List | Glossary Off
Versions: 1 2 3 4 5 6 7 8 9 10 11 12 13 14

720
FTUS41 KILN 191720
TAFCMH
TAF
KCMH 191720Z 1918/2018 26007KT P6SM OVC012
     FM191830 26007KT P6SM FEW015
     FM200500 00000KT 5SM BR SCT025
     FM200600 00000KT 3SM BR BKN015
     FM200900 00000KT 1SM BR OVC015
     FM201500 12003KT P6SM SCT015=

USA.gov is the U.S. government's official web portal to all federal, state and local government web resources and services.